createdAt,value
2023-05-12T00:00:31.824Z,31.00
2023-05-12T00:01:31.883Z,27.61
2023-05-12T00:02:31.900Z,30.79
2023-05-12T00:03:32.048Z,28.97
2023-05-12T00:04:31.955Z,30.01
2023-05-12T00:05:31.912Z,30.42
2023-05-12T00:06:31.946Z,31.38
2023-05-12T00:07:31.968Z,30.96
2023-05-12T00:08:31.990Z,31.14
2023-05-12T00:09:32.951Z,31.41
2023-05-12T00:10:31.995Z,31.74
2023-05-12T00:11:31.987Z,31.79
2023-05-12T00:12:31.993Z,31.61
2023-05-12T00:13:32.037Z,31.46
2023-05-12T00:14:32.024Z,30.54
2023-05-12T00:15:32.026Z,32.14
2023-05-12T00:16:32.124Z,28.46
2023-05-12T00:17:32.078Z,30.65
2023-05-12T00:18:32.040Z,29.74
2023-05-12T00:19:32.033Z,32.62
2023-05-12T00:20:32.046Z,31.62
2023-05-12T00:21:32.066Z,28.84
2023-05-12T00:22:32.075Z,31.75
2023-05-12T00:23:32.073Z,30.75
2023-05-12T00:24:32.089Z,30.99
2023-05-12T00:25:32.107Z,30.30
2023-05-12T00:26:32.123Z,33.37
2023-05-12T00:27:32.139Z,33.65
2023-05-12T00:28:32.136Z,34.01
2023-05-12T00:29:32.125Z,30.02
2023-05-12T00:30:32.165Z,32.54
2023-05-12T00:31:32.216Z,28.32
2023-05-12T00:32:32.281Z,29.59
2023-05-12T00:33:32.272Z,28.65
2023-05-12T00:34:32.334Z,29.64
2023-05-12T00:35:32.337Z,28.55
2023-05-12T00:36:32.364Z,33.16
2023-05-12T00:37:32.404Z,27.54
2023-05-12T00:38:32.451Z,27.17
2023-05-12T00:39:32.486Z,30.69
2023-05-12T00:40:32.530Z,29.99
2023-05-12T00:41:32.556Z,32.20
2023-05-12T00:42:32.585Z,31.63
2023-05-12T00:43:32.620Z,30.34
2023-05-12T00:44:32.625Z,25.87
2023-05-12T00:45:32.701Z,29.32
2023-05-12T00:46:32.700Z,28.89
2023-05-12T00:47:32.746Z,30.87
2023-05-12T00:48:32.732Z,31.51
2023-05-12T00:49:32.767Z,30.15
2023-05-12T00:50:32.788Z,27.50
2023-05-12T00:51:32.802Z,26.92
2023-05-12T00:52:32.839Z,31.33
2023-05-12T00:53:44.892Z,30.02
2023-05-12T00:54:33.882Z,30.11
2023-05-12T00:55:32.880Z,30.27
2023-05-12T00:56:32.882Z,28.85
2023-05-12T00:57:32.890Z,27.12
2023-05-12T00:58:32.902Z,28.67
2023-05-12T00:59:32.923Z,28.09
2023-05-12T01:00:32.917Z,31.48
2023-05-12T01:01:32.958Z,29.47
2023-05-12T01:02:33.016Z,30.77
2023-05-12T01:03:33.047Z,31.27
2023-05-12T01:04:32.967Z,31.27
2023-05-12T01:05:32.959Z,28.97
2023-05-12T01:06:32.986Z,29.70
2023-05-12T01:07:32.996Z,28.68
2023-05-12T01:08:32.986Z,33.04
2023-05-12T01:09:32.998Z,33.91
2023-05-12T01:10:32.996Z,33.50
2023-05-12T01:11:33.020Z,34.06
2023-05-12T01:12:33.006Z,25.00
2023-05-12T01:13:33.026Z,30.07
2023-05-12T01:14:33.021Z,29.93
2023-05-12T01:15:33.046Z,26.81
2023-05-12T01:16:33.051Z,27.76
2023-05-12T01:17:33.171Z,30.15
2023-05-12T01:18:33.155Z,26.17
2023-05-12T01:19:33.171Z,27.88
2023-05-12T01:20:33.176Z,28.62
2023-05-12T01:21:33.230Z,28.56
2023-05-12T01:22:33.268Z,25.98
2023-05-12T01:23:33.295Z,27.46
2023-05-12T01:24:33.366Z,29.42
2023-05-12T01:25:33.379Z,28.88
2023-05-12T01:26:33.410Z,28.95
2023-05-12T01:27:33.570Z,29.80
2023-05-12T01:28:33.490Z,29.63
2023-05-12T01:29:33.530Z,35.17
2023-05-12T01:30:33.572Z,27.84
2023-05-12T01:31:33.684Z,29.99
2023-05-12T01:32:33.671Z,28.62
2023-05-12T01:33:33.674Z,31.87
2023-05-12T01:34:33.729Z,29.32
2023-05-12T01:35:33.776Z,32.42
2023-05-12T01:36:33.799Z,32.75
2023-05-12T01:37:33.837Z,28.93
2023-05-12T01:38:33.892Z,30.86
2023-05-12T01:39:33.943Z,32.10
2023-05-12T01:40:33.970Z,28.45
2023-05-12T01:41:34.063Z,30.15
2023-05-12T01:42:34.041Z,31.79
2023-05-12T01:43:34.072Z,34.30
2023-05-12T01:44:34.121Z,34.98
2023-05-12T01:45:34.152Z,32.15
2023-05-12T01:46:34.291Z,34.77
2023-05-12T01:47:34.261Z,32.27
2023-05-12T01:48:34.319Z,29.58
2023-05-12T01:49:34.304Z,33.39
2023-05-12T01:50:34.346Z,32.15
2023-05-12T01:51:34.469Z,29.56
2023-05-12T01:52:34.403Z,30.56
2023-05-12T01:53:34.439Z,29.11
2023-05-12T01:54:34.474Z,27.05
2023-05-12T01:55:34.511Z,33.86
2023-05-12T01:56:34.543Z,32.67
2023-05-12T01:57:34.590Z,33.26
2023-05-12T01:58:34.639Z,31.43
2023-05-12T01:59:34.722Z,26.85
2023-05-12T02:00:34.711Z,27.17
2023-05-12T02:01:34.758Z,25.18
2023-05-12T02:02:34.810Z,27.84
2023-05-12T02:03:34.809Z,29.31
2023-05-12T02:04:34.837Z,33.23
2023-05-12T02:05:34.824Z,27.82
2023-05-12T02:06:34.858Z,28.43
2023-05-12T02:07:34.911Z,30.79
2023-05-12T02:08:35.053Z,29.17
2023-05-12T02:09:35.000Z,29.77
2023-05-12T02:10:35.126Z,33.89
2023-05-12T02:11:35.072Z,28.27
2023-05-12T02:12:36.011Z,29.62
2023-05-12T02:13:35.142Z,30.94
2023-05-12T02:14:35.160Z,27.41
2023-05-12T02:15:35.174Z,28.24
2023-05-12T02:16:35.244Z,32.77
2023-05-12T02:17:35.257Z,28.55
2023-05-12T02:18:35.362Z,27.96
2023-05-12T02:19:35.336Z,27.11
2023-05-12T02:20:35.406Z,28.06
2023-05-12T02:21:35.453Z,28.98
2023-05-12T02:22:35.481Z,30.32
2023-05-12T02:23:35.517Z,26.58
2023-05-12T02:24:35.552Z,27.88
2023-05-12T02:25:35.584Z,27.22
2023-05-12T02:26:35.635Z,30.01
2023-05-12T02:27:35.675Z,26.31
2023-05-12T02:28:35.734Z,28.73
2023-05-12T02:29:35.742Z,29.65
2023-05-12T02:30:35.773Z,29.69
2023-05-12T02:31:35.839Z,33.78
2023-05-12T02:32:35.868Z,30.38
2023-05-12T02:33:35.870Z,33.99
2023-05-12T02:34:35.906Z,31.33
2023-05-12T02:35:35.939Z,26.71
2023-05-12T02:36:35.952Z,26.96
2023-05-12T02:37:35.962Z,28.12
2023-05-12T02:38:35.973Z,29.10
2023-05-12T02:39:35.989Z,31.33
2023-05-12T02:40:36.010Z,32.35
2023-05-12T02:41:36.032Z,32.08
2023-05-12T02:42:36.039Z,31.39
2023-05-12T02:43:36.059Z,33.03
2023-05-12T02:44:36.072Z,33.22
2023-05-12T02:45:36.123Z,33.48
2023-05-12T02:46:36.115Z,34.33
2023-05-12T02:47:36.130Z,33.20
2023-05-12T02:48:36.134Z,31.88
2023-05-12T02:49:36.171Z,31.57
2023-05-12T02:50:36.146Z,30.81
2023-05-12T02:51:36.186Z,33.93
2023-05-12T02:52:36.187Z,34.04
2023-05-12T02:53:36.199Z,33.93
2023-05-12T02:54:36.191Z,34.91
2023-05-12T02:55:36.271Z,32.86
2023-05-12T02:56:36.227Z,34.53
2023-05-12T02:57:36.234Z,31.10
2023-05-12T02:58:36.333Z,31.44
2023-05-12T02:59:36.261Z,30.68
2023-05-12T03:00:36.280Z,32.64
2023-05-12T03:01:36.305Z,28.91
2023-05-12T03:02:36.396Z,32.52
2023-05-12T03:03:36.358Z,30.93
2023-05-12T03:04:36.326Z,32.38
2023-05-12T03:05:36.313Z,32.42
2023-05-12T03:06:36.327Z,32.57
2023-05-12T03:07:36.357Z,32.73
2023-05-12T03:08:36.332Z,32.42
2023-05-12T03:09:36.354Z,34.63
2023-05-12T03:10:36.371Z,33.31
2023-05-12T03:11:36.374Z,32.61
2023-05-12T03:12:36.392Z,31.21
2023-05-12T03:13:36.483Z,31.44
2023-05-12T03:14:36.470Z,35.83
2023-05-12T03:15:36.502Z,32.66
2023-05-12T03:16:36.590Z,34.27
2023-05-12T03:17:36.671Z,34.34
2023-05-12T03:18:36.681Z,33.25
2023-05-12T03:19:36.663Z,31.73
2023-05-12T03:20:36.709Z,32.48
2023-05-12T03:21:36.735Z,33.20
2023-05-12T03:22:36.762Z,33.70
2023-05-12T03:23:36.797Z,36.75
2023-05-12T03:24:36.837Z,31.80
2023-05-12T03:25:36.872Z,29.08
2023-05-12T03:26:36.924Z,33.08
2023-05-12T03:27:36.993Z,31.15
2023-05-12T03:28:37.023Z,32.40
2023-05-12T03:29:37.044Z,34.48
2023-05-12T03:30:37.076Z,30.46
2023-05-12T03:31:37.121Z,30.96
2023-05-12T03:32:37.170Z,30.09
2023-05-12T03:33:37.178Z,31.68
2023-05-12T03:34:37.224Z,31.70
2023-05-12T03:35:37.260Z,30.88
2023-05-12T03:36:37.301Z,30.16
2023-05-12T03:37:37.331Z,30.53
2023-05-12T03:38:37.354Z,33.09
2023-05-12T03:39:37.392Z,30.78
2023-05-12T03:40:37.434Z,31.04
2023-05-12T03:41:37.473Z,30.99
2023-05-12T03:42:37.490Z,31.16
2023-05-12T03:43:37.488Z,31.39
2023-05-12T03:44:37.521Z,32.62
2023-05-12T03:45:37.505Z,32.81
2023-05-12T03:46:37.560Z,34.57
2023-05-12T03:47:37.703Z,30.90
2023-05-12T03:48:37.546Z,30.31
2023-05-12T03:49:37.517Z,31.73
2023-05-12T03:50:37.540Z,34.50
2023-05-12T03:51:37.546Z,32.01
2023-05-12T03:52:37.543Z,33.45
2023-05-12T03:53:37.548Z,31.29
2023-05-12T03:54:38.140Z,33.28
2023-05-12T03:55:37.567Z,32.51
2023-05-12T03:56:37.586Z,33.05
2023-05-12T03:57:37.648Z,32.44
2023-05-12T03:58:37.608Z,31.58
2023-05-12T03:59:37.613Z,30.89
2023-05-12T04:00:38.869Z,30.20
2023-05-12T04:01:37.735Z,29.06
2023-05-12T04:02:37.808Z,30.50
2023-05-12T04:03:37.849Z,33.15
2023-05-12T04:04:37.784Z,29.84
2023-05-12T04:05:37.841Z,34.66
2023-05-12T04:06:37.891Z,32.58
2023-05-12T04:07:37.929Z,31.26
2023-05-12T04:08:39.720Z,34.12
2023-05-12T04:09:38.015Z,32.71
2023-05-12T04:10:37.996Z,33.53
2023-05-12T04:11:38.018Z,31.09
2023-05-12T04:12:38.008Z,32.58
2023-05-12T04:13:38.004Z,30.67
2023-05-12T04:14:42.851Z,31.79
2023-05-12T04:15:39.004Z,32.18
2023-05-12T04:16:38.046Z,33.39
2023-05-12T04:17:38.040Z,32.90
2023-05-12T04:18:38.060Z,32.50
2023-05-12T04:19:38.048Z,37.83
2023-05-12T04:20:38.048Z,30.91
2023-05-12T04:21:38.129Z,33.15
2023-05-12T04:22:38.072Z,30.77
2023-05-12T04:23:38.083Z,33.65
2023-05-12T04:24:38.092Z,31.73
2023-05-12T04:25:38.105Z,29.63
2023-05-12T04:26:38.109Z,32.16
2023-05-12T04:27:38.135Z,34.33
2023-05-12T04:28:38.126Z,31.31
2023-05-12T04:29:38.161Z,31.23
2023-05-12T04:30:38.192Z,27.72
2023-05-12T04:31:38.316Z,31.67
2023-05-12T04:32:38.315Z,31.65
2023-05-12T04:33:38.385Z,33.98
2023-05-12T04:34:38.412Z,35.49
2023-05-12T04:35:38.483Z,32.17
2023-05-12T04:36:38.523Z,32.46
2023-05-12T04:37:38.561Z,30.99
2023-05-12T04:38:38.605Z,34.02
2023-05-12T04:39:38.658Z,31.22
2023-05-12T04:40:38.698Z,31.65
2023-05-12T04:41:38.777Z,27.49
2023-05-12T04:42:38.846Z,33.34
2023-05-12T04:44:38.866Z,30.29
2023-05-12T04:45:38.880Z,31.09
2023-05-12T04:46:38.950Z,33.16
2023-05-12T04:47:39.012Z,34.35
2023-05-12T04:48:38.916Z,31.76
2023-05-12T04:49:38.946Z,33.42
2023-05-12T04:50:38.949Z,32.35
2023-05-12T04:51:38.969Z,32.71
2023-05-12T04:52:38.984Z,28.40
2023-05-12T04:53:39.081Z,31.57
2023-05-12T04:54:39.051Z,32.90
2023-05-12T04:55:39.059Z,34.61
2023-05-12T04:56:39.024Z,34.88
2023-05-12T04:57:39.132Z,35.10
2023-05-12T04:58:39.053Z,34.96
2023-05-12T04:59:41.041Z,35.81
2023-05-12T05:00:39.166Z,35.71
2023-05-12T05:01:39.258Z,34.67
2023-05-12T05:02:39.229Z,34.47
2023-05-12T05:03:39.223Z,29.29
2023-05-12T05:04:39.146Z,31.75
2023-05-12T05:05:39.188Z,29.52
2023-05-12T05:06:39.290Z,32.96
2023-05-12T05:07:39.279Z,30.35
2023-05-12T05:08:39.303Z,32.76
2023-05-12T05:09:39.322Z,35.69
2023-05-12T05:10:39.337Z,33.91
2023-05-12T05:11:39.369Z,34.47
2023-05-12T05:12:39.415Z,34.48
2023-05-12T05:13:39.444Z,33.24
2023-05-12T05:14:39.475Z,40.11
2023-05-12T05:15:39.528Z,38.34
2023-05-12T05:16:39.548Z,35.66
2023-05-12T05:17:39.641Z,34.51
2023-05-12T05:18:39.646Z,35.52
2023-05-12T05:19:53.715Z,35.01
2023-05-12T05:20:43.786Z,35.16
2023-05-12T05:21:39.687Z,35.40
2023-05-12T05:22:39.705Z,35.63
2023-05-12T05:23:39.715Z,36.88
2023-05-12T05:24:39.719Z,38.15
2023-05-12T05:25:39.771Z,39.34
2023-05-12T05:26:39.754Z,45.16
2023-05-12T05:27:39.777Z,35.41
2023-05-12T05:28:39.977Z,36.26
2023-05-12T05:29:39.805Z,38.55
2023-05-12T05:30:40.610Z,38.17
2023-05-12T05:31:39.869Z,36.43
2023-05-12T05:32:39.879Z,37.19
2023-05-12T05:33:39.865Z,36.63
2023-05-12T05:34:39.901Z,37.55
2023-05-12T05:35:39.901Z,36.13
2023-05-12T05:36:39.889Z,40.77
2023-05-12T05:37:39.995Z,47.15
2023-05-12T05:38:39.952Z,52.46
2023-05-12T05:39:39.941Z,65.48
2023-05-12T05:40:52.340Z,77.58
2023-05-12T05:41:40.944Z,78.61
2023-05-12T05:42:39.949Z,83.05
2023-05-12T05:43:39.957Z,92.51
2023-05-12T05:44:39.978Z,112.45
2023-05-12T05:45:39.985Z,143.72
2023-05-12T05:46:40.050Z,151.94
2023-05-12T05:47:40.132Z,160.29
2023-05-12T05:48:39.997Z,163.93
2023-05-12T05:49:39.993Z,171.78
2023-05-12T05:50:40.070Z,177.74
2023-05-12T05:51:40.000Z,185.57
2023-05-12T05:52:40.072Z,187.76
2023-05-12T05:53:40.000Z,196.69
2023-05-12T05:54:40.004Z,205.61
2023-05-12T05:55:40.003Z,212.85
2023-05-12T05:56:40.025Z,213.23
2023-05-12T05:57:40.032Z,215.65
2023-05-12T05:58:40.023Z,221.13
2023-05-12T05:59:40.051Z,230.86
2023-05-12T06:00:40.023Z,246.55
2023-05-12T06:01:40.057Z,214.42
2023-05-12T06:02:40.089Z,220.12
2023-05-12T06:03:40.100Z,231.01
2023-05-12T06:04:40.022Z,249.26
2023-05-12T06:05:40.021Z,277.56
2023-05-12T06:06:40.024Z,250.00
2023-05-12T06:07:40.028Z,248.52
2023-05-12T06:08:40.031Z,250.00
2023-05-12T06:09:40.055Z,248.61
2023-05-12T06:10:40.056Z,246.54
2023-05-12T06:11:40.059Z,250.00
2023-05-12T06:12:40.069Z,250.00
2023-05-12T06:13:40.102Z,249.71
2023-05-12T06:14:40.177Z,249.45
2023-05-12T06:15:40.203Z,250.00
2023-05-12T06:16:40.305Z,250.00
2023-05-12T06:17:40.335Z,250.00
2023-05-12T06:18:40.345Z,250.30
2023-05-12T06:19:40.314Z,251.60
2023-05-12T06:20:40.321Z,254.39
2023-05-12T06:21:40.315Z,260.12
2023-05-12T06:22:40.346Z,269.56
2023-05-12T06:23:40.323Z,259.44
2023-05-12T06:24:40.346Z,249.42
2023-05-12T06:25:40.419Z,249.02
2023-05-12T06:26:40.361Z,249.74
2023-05-12T06:27:40.354Z,248.33
2023-05-12T06:28:40.386Z,249.83
2023-05-12T06:29:40.351Z,249.74
2023-05-12T06:30:41.106Z,250.00
2023-05-12T06:31:40.593Z,250.16
2023-05-12T06:32:40.626Z,251.06
2023-05-12T06:33:40.631Z,252.93
2023-05-12T06:34:40.658Z,256.14
2023-05-12T06:35:40.651Z,259.47
2023-05-12T06:36:40.675Z,248.23
2023-05-12T06:37:40.696Z,248.42
2023-05-12T06:38:40.722Z,249.91
2023-05-12T06:39:40.719Z,246.79
2023-05-12T06:40:40.764Z,244.12
2023-05-12T06:41:40.786Z,243.23
2023-05-12T06:42:40.843Z,240.74
2023-05-12T06:43:40.864Z,242.09
2023-05-12T06:44:42.339Z,240.26
2023-05-12T06:45:40.865Z,243.01
2023-05-12T06:46:40.882Z,240.63
2023-05-12T06:47:40.949Z,239.06
2023-05-12T06:48:40.906Z,232.62
2023-05-12T06:49:40.906Z,233.67
2023-05-12T06:50:40.913Z,232.60
2023-05-12T06:51:40.942Z,231.85
2023-05-12T06:52:40.957Z,227.90
2023-05-12T06:53:40.981Z,223.43
2023-05-12T06:54:40.992Z,219.12
2023-05-12T06:55:41.020Z,214.34
2023-05-12T06:56:41.070Z,211.54
2023-05-12T06:57:41.091Z,209.58
2023-05-12T06:58:41.133Z,207.26
2023-05-12T06:59:41.138Z,204.45
2023-05-12T07:00:41.173Z,199.51
2023-05-12T07:01:41.329Z,200.46
2023-05-12T07:02:41.382Z,196.80
2023-05-12T07:03:41.344Z,195.31
2023-05-12T07:04:41.351Z,192.55
2023-05-12T07:05:41.444Z,191.65
2023-05-12T07:06:41.384Z,190.28
2023-05-12T07:07:41.446Z,188.36
2023-05-12T07:08:41.486Z,182.87
2023-05-12T07:09:41.533Z,180.15
2023-05-12T07:10:41.558Z,178.99
2023-05-12T07:11:41.610Z,177.52
2023-05-12T07:12:41.656Z,174.57
2023-05-12T07:13:41.765Z,173.81
2023-05-12T07:14:41.757Z,172.69
2023-05-12T07:15:41.995Z,169.98
2023-05-12T07:16:41.809Z,168.20
2023-05-12T07:17:42.018Z,167.07
2023-05-12T07:18:42.181Z,165.93
2023-05-12T07:19:41.954Z,163.92
2023-05-12T07:20:42.022Z,162.30
2023-05-12T07:21:42.088Z,162.65
2023-05-12T07:22:42.188Z,161.85
2023-05-12T07:23:42.158Z,160.53
2023-05-12T07:24:42.239Z,158.08
2023-05-12T07:25:42.302Z,155.77
2023-05-12T07:26:42.305Z,154.42
2023-05-12T07:27:42.334Z,153.84
2023-05-12T07:28:42.401Z,150.98
2023-05-12T07:29:42.446Z,149.27
2023-05-12T07:30:42.442Z,149.45
2023-05-12T07:31:42.493Z,149.74
2023-05-12T07:32:42.466Z,149.96
2023-05-12T07:33:42.440Z,149.69
2023-05-12T07:34:42.493Z,151.34
2023-05-12T07:35:42.417Z,149.25
2023-05-12T07:36:42.415Z,149.32
2023-05-12T07:37:42.801Z,148.62
2023-05-12T07:38:42.425Z,149.98
2023-05-12T07:39:42.399Z,151.84
2023-05-12T07:40:42.392Z,151.04
2023-05-12T07:41:42.395Z,150.19
2023-05-12T07:42:42.422Z,148.07
2023-05-12T07:43:42.484Z,103.11
2023-05-12T07:44:42.402Z,58.52
2023-05-12T07:45:42.421Z,98.54
2023-05-12T07:46:42.390Z,99.46
2023-05-12T07:47:42.417Z,99.88
2023-05-12T07:48:42.372Z,104.43
2023-05-12T07:49:42.340Z,110.69
2023-05-12T07:50:42.385Z,119.50
2023-05-12T07:51:42.334Z,126.29
2023-05-12T07:52:43.221Z,128.43
2023-05-12T07:53:42.367Z,129.39
2023-05-12T07:54:42.342Z,130.58
2023-05-12T07:55:42.314Z,133.06
2023-05-12T07:56:44.143Z,132.50
2023-05-12T07:57:42.323Z,136.43
2023-05-12T07:58:42.321Z,137.38
2023-05-12T07:59:42.366Z,135.50
2023-05-12T08:00:42.326Z,134.65
2023-05-12T08:01:42.325Z,132.63
2023-05-12T08:02:42.499Z,133.37
2023-05-12T08:03:42.417Z,133.72
2023-05-12T08:04:44.370Z,133.76
2023-05-12T08:05:42.309Z,134.03
2023-05-12T08:06:42.298Z,133.76
2023-05-12T08:07:42.323Z,135.68
2023-05-12T08:08:42.312Z,133.98
2023-05-12T08:09:42.305Z,134.74
2023-05-12T08:10:42.309Z,135.76
2023-05-12T08:11:44.026Z,137.22
2023-05-12T08:12:42.321Z,135.32
2023-05-12T08:13:42.300Z,129.44
2023-05-12T08:14:42.360Z,128.37
2023-05-12T08:15:42.307Z,133.46
2023-05-12T08:16:42.402Z,133.02
2023-05-12T08:17:42.356Z,133.96
2023-05-12T08:18:42.345Z,130.93
2023-05-12T08:19:42.306Z,125.40
2023-05-12T08:20:42.320Z,126.81
2023-05-12T08:21:42.519Z,122.35
2023-05-12T08:22:42.315Z,124.58
2023-05-12T08:23:42.314Z,122.88
2023-05-12T08:24:42.317Z,121.06
2023-05-12T08:25:42.336Z,115.77
2023-05-12T08:26:42.445Z,119.87
2023-05-12T08:27:42.376Z,122.24
2023-05-12T08:28:42.334Z,115.40
2023-05-12T08:29:42.324Z,105.05
2023-05-12T08:30:42.426Z,86.72
2023-05-12T08:31:42.419Z,40.61
2023-05-12T08:32:42.397Z,0.00
2023-05-12T08:33:42.325Z,0.00
2023-05-12T08:34:42.320Z,1.23
2023-05-12T08:35:42.331Z,46.81
2023-05-12T08:36:42.381Z,87.97
2023-05-12T08:37:42.524Z,100.30
2023-05-12T08:38:42.491Z,104.17
2023-05-12T08:39:42.529Z,98.93
2023-05-12T08:40:42.579Z,91.12
2023-05-12T08:41:43.169Z,81.30
2023-05-12T08:42:42.615Z,70.79
2023-05-12T08:43:42.666Z,52.41
2023-05-12T08:44:42.703Z,41.13
2023-05-12T08:45:42.725Z,28.61
2023-05-12T08:46:42.867Z,24.96
2023-05-12T08:47:42.866Z,25.00
2023-05-12T08:48:43.155Z,25.49
2023-05-12T08:49:42.856Z,19.14
2023-05-12T08:50:42.840Z,0.00
2023-05-12T08:51:43.660Z,0.00
2023-05-12T08:52:42.847Z,0.00
2023-05-12T08:53:42.888Z,0.00
2023-05-12T08:54:54.933Z,0.00
2023-05-12T08:55:54.172Z,0.08
2023-05-12T08:57:42.920Z,0.12
2023-05-12T08:58:42.936Z,0.00
2023-05-12T08:59:42.924Z,0.00
2023-05-12T09:00:42.973Z,0.00
2023-05-12T09:01:43.048Z,0.00
2023-05-12T09:02:53.155Z,0.00
2023-05-12T09:03:44.171Z,0.00
2023-05-12T09:04:43.224Z,0.00
2023-05-12T09:05:43.233Z,0.63
2023-05-12T09:06:43.342Z,1.02
2023-05-12T09:07:43.293Z,1.40
2023-05-12T09:08:43.339Z,17.19
2023-05-12T09:09:43.425Z,22.26
2023-05-12T09:10:43.424Z,29.21
2023-05-12T09:11:43.451Z,30.38
2023-05-12T09:12:43.502Z,24.71
2023-05-12T09:13:43.563Z,24.35
2023-05-12T09:14:43.599Z,33.19
2023-05-12T09:15:43.659Z,37.27
2023-05-12T09:16:43.782Z,39.72
2023-05-12T09:17:43.772Z,48.68
2023-05-12T09:18:43.833Z,38.32
2023-05-12T09:19:43.800Z,30.66
2023-05-12T09:20:43.855Z,25.07
2023-05-12T09:21:43.909Z,38.95
2023-05-12T09:22:43.953Z,49.70
2023-05-12T09:23:43.948Z,49.91
2023-05-12T09:24:44.028Z,30.40
2023-05-12T09:25:44.000Z,34.32
2023-05-12T09:26:43.969Z,41.05
2023-05-12T09:27:43.953Z,32.06
2023-05-12T09:28:44.039Z,38.45
2023-05-12T09:29:58.108Z,20.09
2023-05-12T09:30:45.026Z,30.52
2023-05-12T09:31:43.990Z,17.53
2023-05-12T09:32:43.965Z,25.80
2023-05-12T09:33:43.966Z,25.75
2023-05-12T09:34:43.981Z,30.39
2023-05-12T09:35:43.976Z,24.64
2023-05-12T09:36:43.979Z,36.24
2023-05-12T09:37:43.978Z,39.03
2023-05-12T09:38:44.012Z,32.22
2023-05-12T09:39:44.016Z,24.39
2023-05-12T09:40:44.016Z,25.47
2023-05-12T09:41:44.021Z,32.84
2023-05-12T09:42:44.030Z,45.11
2023-05-12T09:43:44.023Z,47.22
2023-05-12T09:44:44.013Z,55.32
2023-05-12T09:45:44.290Z,63.45
2023-05-12T09:46:44.195Z,72.76
2023-05-12T09:47:44.209Z,78.81
2023-05-12T09:48:44.192Z,85.87
2023-05-12T09:49:44.261Z,91.51
2023-05-12T09:50:47.315Z,98.91
2023-05-12T09:51:44.402Z,99.23
2023-05-12T09:52:44.259Z,100.75
2023-05-12T09:53:44.288Z,105.96
2023-05-12T09:54:44.278Z,114.93
2023-05-12T09:55:44.246Z,127.52
2023-05-12T09:56:44.252Z,100.09
2023-05-12T09:57:44.312Z,104.63
2023-05-12T09:58:44.252Z,113.12
2023-05-12T09:59:44.257Z,126.66
2023-05-12T10:01:44.264Z,148.40
2023-05-12T10:02:44.294Z,151.54
2023-05-12T10:03:44.277Z,152.56
2023-05-12T10:04:44.273Z,154.93
2023-05-12T10:05:44.227Z,156.04
2023-05-12T10:06:44.262Z,157.48
2023-05-12T10:07:44.292Z,158.69
2023-05-12T10:08:44.340Z,158.80
2023-05-12T10:09:44.376Z,159.75
2023-05-12T10:10:44.371Z,160.87
2023-05-12T10:11:44.371Z,160.89
2023-05-12T10:12:44.415Z,161.02
2023-05-12T10:13:44.375Z,161.09
2023-05-12T10:14:44.390Z,161.31
2023-05-12T10:15:44.544Z,161.08
2023-05-12T10:16:44.375Z,161.80
2023-05-12T10:17:44.451Z,163.06
2023-05-12T10:18:44.425Z,161.14
2023-05-12T10:19:44.369Z,161.90
2023-05-12T10:20:44.349Z,163.29
2023-05-12T10:21:44.356Z,165.21
2023-05-12T10:22:44.365Z,168.61
2023-05-12T10:23:44.386Z,167.76
2023-05-12T10:24:44.398Z,168.05
2023-05-12T10:25:44.362Z,168.65
2023-05-12T10:26:45.160Z,169.54
2023-05-12T10:27:44.400Z,168.74
2023-05-12T10:28:44.368Z,168.53
2023-05-12T10:29:44.436Z,170.07
2023-05-12T10:30:44.357Z,170.16
2023-05-12T10:31:44.407Z,168.86
2023-05-12T10:32:44.407Z,171.36
2023-05-12T10:33:44.406Z,170.61
2023-05-12T10:34:44.426Z,172.45
2023-05-12T10:35:45.405Z,172.06
2023-05-12T10:36:44.636Z,174.75
2023-05-12T10:37:44.599Z,172.29
2023-05-12T10:38:44.638Z,171.34
2023-05-12T10:39:44.672Z,170.90
2023-05-12T10:40:44.744Z,172.56
2023-05-12T10:41:44.767Z,176.43
2023-05-12T10:42:44.787Z,175.92
2023-05-12T10:43:44.811Z,176.93
2023-05-12T10:44:44.824Z,177.24
2023-05-12T10:45:45.773Z,180.54
2023-05-12T10:46:45.046Z,178.77
2023-05-12T10:47:44.966Z,178.72
2023-05-12T10:48:44.949Z,177.94
2023-05-12T10:49:44.977Z,175.21
2023-05-12T10:50:44.987Z,172.61
2023-05-12T10:51:45.056Z,171.29
2023-05-12T10:52:45.043Z,173.28
2023-05-12T10:53:50.188Z,173.31
2023-05-12T10:54:46.060Z,173.37
2023-05-12T10:55:45.268Z,173.64
2023-05-12T10:56:45.300Z,174.22
2023-05-12T10:57:45.280Z,174.66
2023-05-12T10:58:45.302Z,173.53
2023-05-12T10:59:45.281Z,171.96
2023-05-12T11:00:45.863Z,169.31
2023-05-12T11:01:46.520Z,169.88
2023-05-12T11:02:45.931Z,168.74
2023-05-12T11:03:46.019Z,168.06
2023-05-12T11:04:45.313Z,167.89
2023-05-12T11:05:45.946Z,167.27
2023-05-12T11:06:45.657Z,167.27
2023-05-12T11:07:45.637Z,164.35
2023-05-12T11:08:46.003Z,164.89
2023-05-12T11:09:56.869Z,164.01
2023-05-12T11:10:47.073Z,162.97
2023-05-12T11:11:45.765Z,165.11
2023-05-12T11:12:45.236Z,166.67
2023-05-12T11:13:45.277Z,166.21
2023-05-12T11:14:45.199Z,163.40
2023-05-12T11:15:45.202Z,161.56
2023-05-12T11:16:45.295Z,160.57
2023-05-12T11:17:45.248Z,159.55
2023-05-12T11:18:47.709Z,158.26
2023-05-12T11:19:45.353Z,156.61
2023-05-12T11:20:46.202Z,153.96
2023-05-12T11:21:45.416Z,154.72
2023-05-12T11:22:45.825Z,155.63
2023-05-12T11:23:45.517Z,152.60
2023-05-12T11:24:45.612Z,150.24
2023-05-12T11:25:45.758Z,151.79
2023-05-12T11:26:45.763Z,149.76
2023-05-12T11:27:46.397Z,150.60
2023-05-12T11:28:45.808Z,149.67
2023-05-12T11:29:46.215Z,149.59
2023-05-12T11:30:45.828Z,148.43
2023-05-12T11:31:45.817Z,147.57
2023-05-12T11:32:45.923Z,146.94
2023-05-12T11:33:45.907Z,144.64
2023-05-12T11:34:46.234Z,143.58
2023-05-12T11:35:45.969Z,145.75
2023-05-12T11:36:46.002Z,141.76
2023-05-12T11:37:46.037Z,142.50
2023-05-12T11:38:46.066Z,144.22
2023-05-12T11:39:46.105Z,142.24
2023-05-12T11:40:46.176Z,140.04
2023-05-12T11:41:46.149Z,140.86
2023-05-12T11:42:46.207Z,140.84
2023-05-12T11:43:46.234Z,141.88
2023-05-12T11:44:46.256Z,141.36
2023-05-12T11:45:46.414Z,139.44
2023-05-12T11:46:46.319Z,137.65
2023-05-12T11:47:46.374Z,138.70
2023-05-12T11:48:46.366Z,138.82
2023-05-12T11:49:46.448Z,136.65
2023-05-12T11:50:46.434Z,136.08
2023-05-12T11:51:46.453Z,138.28
2023-05-12T11:52:46.464Z,137.17
2023-05-12T11:53:46.520Z,135.43
2023-05-12T11:54:46.538Z,133.96
2023-05-12T11:55:46.551Z,133.22
2023-05-12T11:56:46.577Z,132.05
2023-05-12T11:57:46.611Z,134.98
2023-05-12T11:58:46.615Z,134.93
2023-05-12T11:59:46.664Z,133.98
2023-05-12T12:00:46.649Z,135.59
2023-05-12T12:01:46.670Z,131.99
2023-05-12T12:02:46.715Z,132.33
2023-05-12T12:03:46.794Z,131.20
2023-05-12T12:04:46.710Z,130.93
2023-05-12T12:05:46.781Z,130.45
2023-05-12T12:06:46.747Z,128.73
2023-05-12T12:07:46.778Z,132.72
2023-05-12T12:08:46.764Z,130.72
2023-05-12T12:09:46.803Z,129.93
2023-05-12T12:10:46.812Z,126.70
2023-05-12T12:11:46.851Z,128.47
2023-05-12T12:12:46.865Z,128.43
2023-05-12T12:13:46.878Z,129.07
2023-05-12T12:14:46.896Z,129.16
2023-05-12T12:15:46.977Z,129.19
2023-05-12T12:16:46.913Z,128.18
2023-05-12T12:17:46.997Z,131.78
2023-05-12T12:18:46.993Z,132.02
2023-05-12T12:19:47.000Z,130.44
2023-05-12T12:20:46.991Z,128.07
2023-05-12T12:21:47.057Z,125.23
2023-05-12T12:22:47.027Z,129.24
2023-05-12T12:23:51.359Z,130.95
2023-05-12T12:24:47.034Z,130.48
2023-05-12T12:25:47.022Z,129.98
2023-05-12T12:26:47.041Z,129.37
2023-05-12T12:27:47.051Z,129.90
2023-05-12T12:28:47.017Z,129.11
2023-05-12T12:29:47.057Z,129.01
2023-05-12T12:30:46.993Z,129.06
2023-05-12T12:31:47.094Z,129.34
2023-05-12T12:32:47.005Z,129.91
2023-05-12T12:33:47.025Z,128.21
2023-05-12T12:34:46.964Z,128.90
2023-05-12T12:35:47.020Z,127.23
2023-05-12T12:36:46.944Z,126.74
2023-05-12T12:37:46.927Z,126.98
2023-05-12T12:38:46.933Z,126.13
2023-05-12T12:39:46.933Z,124.84
2023-05-12T12:40:46.920Z,123.56
2023-05-12T12:41:46.920Z,128.93
2023-05-12T12:42:46.906Z,123.02
2023-05-12T12:43:46.919Z,123.97
2023-05-12T12:44:47.742Z,125.43
2023-05-12T12:45:46.882Z,122.43